• Join FlightAware (Why Join?)
  • Login
  • US Flag 
06:14AM EDT


 

Airport Tracker/Info


-or-


 

Live Flight TrackerFlight Track Log ✈ N118RT ✈ 07-Nov-2013 ✈ KELP - MMTC / TRC

Flight Track Log - Related Links

Times and Time Zones

All times are in EST time to prevent confusion due to time zone crossing. See the N118RT flight status page for this flight to view local times or setup timezone preferences in your user account.

Time Position Orientation Groundspeed Altitude Reporting Facility
EST Latitude Longitude Course Direction KTS MPH feet Rate Location/Type
01:27PM 31.8381 -106.3289 86° East 215 247 6,400  Level Albuquerque Center
01:27PM 31.8400 -106.2981 86° East 224 258 7,600 2,220 Climbing Albuquerque Center
01:28PM 31.8400 -106.2808 90° East 234 269 8,000 2,580 Climbing Albuquerque Center
01:28PM 31.8042 -106.2378 134° Southeast 238 274 10,300 2,760 Climbing Albuquerque Center
01:29PM 31.7933 -106.2250 135° Southeast 249 287 10,800 2,460 Climbing Albuquerque Center
01:30PM 31.7522 -106.1853 141° Southeast 246 283 12,900 2,640 Climbing Albuquerque Center
01:31PM 31.6992 -106.1297 138° Southeast 254 292 15,600 1,920 Climbing Albuquerque Center
01:32PM 31.6308 -106.0586 138° Southeast 274 315 17,000 1,200 Climbing Albuquerque Center
01:33PM 31.5631 -105.9878 138° Southeast 323 372 18,100 1,560 Climbing Albuquerque Center
01:34PM 31.5025 -105.9253 139° Southeast 294 338 20,300 2,280 Climbing Albuquerque Center
01:35PM 31.4467 -105.8661 138° Southeast 273 314 22,900 1,980 Climbing Albuquerque Center
01:36PM 31.3911 -105.8078 138° Southeast 269 310 24,500 1,620 Climbing Albuquerque Center
01:37PM 31.3331 -105.7478 139° Southeast 279 321 26,300 1,380 Climbing Albuquerque Center
01:43PM 30.9480 -105.3880 139° Southeast 261 300 34,100 1,260 Climbing FlightAware
01:43PM 30.9240 -105.3900 184° South 262 302 34,400 240 Climbing FlightAware
01:44PM 30.8750 -105.3920 182° South 262 302 34,400 780 Level FlightAware
01:44PM 30.8220 -105.3770 166° South 290 334 35,500 1,500 Climbing FlightAware
01:45PM 30.8000 -105.3670 159° South 297 342 35,700 900 Climbing FlightAware
01:46PM 30.7050 -105.3300 161° South 289 333 36,900 840 Climbing FlightAware
01:46PM 30.6640 -105.3150 163° South 292 336 37,200 240 Climbing FlightAware
01:47PM 30.6230 -105.2980 160° South 292 336 37,200 480 Level FlightAware
01:48PM 30.5700 -105.2790 163° South 299 344 37,800 1,080 Climbing FlightAware
01:48PM 30.5230 -105.2610 162° South 290 334 38,500 780 Climbing FlightAware
01:49PM 30.4530 -105.2340 162° South 292 336 39,000 240 Climbing FlightAware
01:50PM 30.3700 -105.2030 162° South 307 353 39,000  Level FlightAware
01:51PM 30.3280 -105.1870 162° South 312 359 39,000  Level FlightAware
01:51PM 30.2600 -105.1620 162° South 318 366 39,000  Level FlightAware
01:52PM 30.2270 -105.1490 161° South 318 366 39,000  Level FlightAware
01:53PM 30.1440 -105.1170 162° South 320 368 39,000 660 Level FlightAware
01:54PM 30.0840 -105.0950 162° South 296 341 40,200 1,020 Climbing FlightAware
01:54PM 30.0200 -105.0710 162° South 293 337 40,600 420 Climbing FlightAware
01:55PM 29.9520 -105.0450 162° South 292 336 41,000 300 Climbing FlightAware
01:56PM 29.9240 -105.0340 161° South 292 336 41,000  Level FlightAware
01:56PM 29.8850 -105.0180 160° South 292 336 41,000  Level FlightAware
01:57PM 29.8460 -105.0030 162° South 292 336 41,000  Level FlightAware
01:58PM 29.8070 -104.9870 160° South 292 336 41,000  Level FlightAware
01:58PM 29.6970 -104.9500 164° South 314 361 41,000  Level FlightAware
01:59PM 29.6350 -104.9270 162° South 317 365 41,000  Level FlightAware
02:00PM 29.6040 -104.9150 161° South 316 364 41,000  Level FlightAware
02:00PM 29.5440 -104.8910 161° South 316 364 41,000  Level FlightAware
02:01PM 29.5040 -104.8760 162° South 316 364 41,000  Level FlightAware
02:01PM 29.4780 -104.8650 160° South 316 364 41,000  Level FlightAware
02:03PM 29.3940 -104.8320 161° South 316 364 41,000  Level FlightAware
02:04PM 29.3200 -104.8030 161° South 316 364 41,000  Level FlightAware
02:04PM 29.2770 -104.7860 161° South 316 364 41,000  Level FlightAware
02:05PM 29.1700 -104.7540 165° South 318 366 41,000  Level FlightAware
02:06PM 29.0750 -104.7190 162° South 319 367 41,000  Level FlightAware
02:06PM 29.0320 -104.7030 162° South 319 367 41,000  Level FlightAware
02:07PM 28.9830 -104.6850 162° South 319 367 41,000  Level FlightAware
02:08PM 28.9310 -104.6660 162° South 320 368 41,000  Level FlightAware
02:08PM 28.8780 -104.6460 162° South 321 369 41,000  Level FlightAware
02:09PM 28.8250 -104.6270 163° South 321 369 41,000  Level FlightAware
02:09PM 28.7830 -104.6120 163° South 321 369 41,000  Level FlightAware
02:10PM 28.7070 -104.5830 161° South 322 371 41,000  Level FlightAware
02:11PM 28.6550 -104.5640 162° South 322 371 41,000  Level FlightAware
02:11PM 28.6230 -104.5530 163° South 323 372 41,000  Level FlightAware
02:12PM 28.5080 -104.5110 162° South 325 374 41,000  Level FlightAware
02:13PM 28.4220 -104.4790 162° South 326 375 41,000  Level FlightAware
02:14PM 28.3680 -104.4600 163° South 327 376 41,000  Level FlightAware
02:15PM 28.3230 -104.4430 162° South 326 375 41,000  Level FlightAware
02:15PM 28.2710 -104.4240 162° South 326 375 41,000  Level FlightAware
02:16PM 28.1840 -104.3930 163° South 327 376 41,000  Level FlightAware
02:17PM 28.1440 -104.3790 163° South 327 376 41,000  Level FlightAware
02:17PM 28.0980 -104.3620 162° South 328 377 41,000  Level FlightAware
02:18PM 28.0290 -104.3370 162° South 328 377 41,000  Level FlightAware
02:19PM 27.9870 -104.3220 162° South 329 379 41,000  Level FlightAware
02:19PM 27.9250 -104.2990 162° South 330 380 41,000  Level FlightAware
02:20PM 27.8780 -104.2820 162° South 331 381 41,000  Level FlightAware
02:20PM 27.8210 -104.2620 163° South 332 382 41,000  Level FlightAware
02:21PM 27.8100 -104.2580 162° South 333 383 41,000  Level FlightAware
02:22PM 27.6840 -104.2130 162° South 334 384 41,000  Level FlightAware
02:22PM 27.6360 -104.1960 163° South 336 387 41,000  Level FlightAware
02:23PM 27.5750 -104.1740 162° South 335 386 41,000  Level FlightAware
02:24PM 27.4820 -104.1410 163° South 335 386 41,000  Level FlightAware
02:25PM 27.4420 -104.1270 163° South 335 386 41,000  Level FlightAware
02:26PM 27.3530 -104.0940 162° South 337 388 41,000  Level FlightAware
02:26PM 27.3060 -104.0770 162° South 337 388 41,000  Level FlightAware
02:27PM 27.2620 -104.0610 162° South 337 388 41,000  Level FlightAware
02:27PM 27.2170 -104.0450 162° South 337 388 41,000  Level FlightAware
02:28PM 27.1700 -104.0280 162° South 337 388 41,000  Level FlightAware
02:29PM 27.1120 -104.0060 161° South 337 388 41,000  Level FlightAware
02:30PM 27.0360 -103.9790 162° South 337 388 41,000  Level FlightAware
02:30PM 26.9910 -103.9620 161° South 337 388 41,000  Level FlightAware
02:31PM 26.9290 -103.9400 162° South 337 388 41,000  Level FlightAware
02:32PM 26.8990 -103.9290 162° South 337 388 41,000  Level FlightAware
02:33PM 26.8070 -103.8950 162° South 337 388 41,000  Level FlightAware
02:33PM 26.7620 -103.8790 162° South 337 388 41,000  Level FlightAware
02:34PM 26.7160 -103.8620 162° South 337 388 41,000  Level FlightAware
02:35PM 26.6380 -103.8340 162° South 337 388 41,000 -3,960 Level FlightAware
02:38PM 26.4535 -103.7604 160° South  Level Estimated
02:39PM 26.3767 -103.7298 160° South  Level Estimated
02:40PM 26.2998 -103.6992 160° South  Level Estimated
02:41PM 26.2229 -103.6687 160° South  Level Estimated
02:41PM 26.0070 -103.5790 160° South 270 311 13,300  Level FlightAware
02:42PM 26.1460 -103.6382 160° South  Level Estimated
02:42PM 25.9550 -103.5590 161° South 262 302 11,700  Level FlightAware
02:43PM 25.9080 -103.5410 161° South 259 298 10,300 -1,440 Descending FlightAware
02:43PM 25.8680 -103.5250 160° South 259 298 9,900 -420 Descending FlightAware
02:44PM 25.8440 -103.5160 161° South 259 298 9,900  Level FlightAware
02:44PM 25.8220 -103.5080 162° South 259 298 9,900  Level FlightAware
02:45PM 25.7880 -103.4950 161° South 259 298 9,900 -720 Level FlightAware
02:47PM 25.6350 -103.4362 146° Southeast  Level Estimated
02:47PM 25.6260 -103.4320 270° West 219 252 7,600  Level FlightAware
02:48PM 25.5667 -103.4165 270° West  Level FlightAware Approximate
02:48PM 25.5960 -103.4210 162° South 221 254 7,600  Level FlightAware
02:49PM 25.5560 -103.3880 143° Southeast 223 257 7,100 -960 Descending FlightAware
02:49PM 25.5440 -103.3520 110° East 217 250 6,400 -1,200 Descending FlightAware
02:50PM 25.5330 -103.3210 111° Southeast 211 243 5,800 -840 Descending FlightAware
02:50PM 25.5230 -103.2910 110° East 198 228 5,600 -180 Descending FlightAware
02:51PM 25.5080 -103.2570 116° Southeast 189 217 5,600  Level FlightAware
02:51PM 25.4970 -103.2520 158° South 190 219 5,600 -600 Level FlightAware
02:52PM 25.4740 -103.2860 233° Southwest 217 250 5,000 -720 Descending FlightAware
02:52PM 25.4850 -103.3200 290° West 204 235 4,700 -360 Descending FlightAware
02:53PM 25.5050 -103.3430 314° West 153 176 4,600 -420 Descending FlightAware
02:53PM 25.5190 -103.3580 316° Northwest 135 155 4,300 -720 Descending FlightAware
02:54PM 25.5310 -103.3710 316° Northwest 106 122 3,900 -720 Descending FlightAware
02:54PM 25.5420 -103.3820 318° Northwest 105 121 3,600 -600 Descending FlightAware
02:55PM 25.5500 -103.3910 315° West 105 121 3,400 -420 Descending FlightAware
02:55PM 25.5580 -103.4000 315° West 106 122 3,300 -300 Descending FlightAware